createdAt,value
2023-12-23T00:00:14.936Z,97937.94
2023-12-23T00:02:43.524Z,97942.72
2023-12-23T00:05:11.980Z,97938.69
2023-12-23T00:07:40.626Z,97943.47
2023-12-23T00:10:09.410Z,97940.78
2023-12-23T00:12:37.501Z,97934.50
2023-12-23T00:15:06.214Z,97930.13
2023-12-23T00:17:36.628Z,97938.28
2023-12-23T00:20:06.817Z,97932.41
2023-12-23T00:22:37.148Z,97926.78
2023-12-23T00:25:05.682Z,97923.28
2023-12-23T00:27:33.930Z,97913.63
2023-12-23T00:30:02.686Z,97929.06
2023-12-23T00:32:31.224Z,97929.91
2023-12-23T00:34:59.758Z,97936.78
2023-12-23T00:37:28.762Z,97936.91
2023-12-23T00:46:58.158Z,97943.19
2023-12-23T00:53:45.951Z,97940.88
2023-12-23T00:56:23.501Z,97941.31
2023-12-23T00:58:52.212Z,97931.91
2023-12-23T01:01:20.235Z,97933.72
2023-12-23T01:03:48.113Z,97926.72
2023-12-23T01:06:16.529Z,97936.56
2023-12-23T01:08:44.977Z,97931.22
2023-12-23T01:11:18.279Z,97921.69
2023-12-23T01:13:46.332Z,97924.34
2023-12-23T01:16:15.097Z,97934.19
2023-12-23T01:18:43.432Z,97929.00
2023-12-23T01:21:12.716Z,97931.78
2023-12-23T01:23:40.978Z,97939.41
2023-12-23T01:26:10.315Z,97937.56
2023-12-23T01:28:38.623Z,97933.09
2023-12-23T01:31:07.105Z,97932.53
2023-12-23T01:33:35.139Z,97938.19
2023-12-23T01:36:07.001Z,97932.97
2023-12-23T01:38:35.116Z,97946.31
2023-12-23T01:41:04.162Z,97942.97
2023-12-23T01:43:32.960Z,97941.41
2023-12-23T01:46:01.279Z,97950.25
2023-12-23T01:48:30.162Z,97940.88
2023-12-23T01:50:59.035Z,97955.19
2023-12-23T01:53:28.353Z,97954.63
2023-12-23T01:55:57.353Z,97955.91
2023-12-23T01:58:26.076Z,97972.22
2023-12-23T02:00:54.629Z,97955.34
2023-12-23T02:03:48.262Z,97949.34
2023-12-23T02:06:16.599Z,97946.41
2023-12-23T02:08:45.042Z,97949.91
2023-12-23T02:11:40.081Z,97952.56
2023-12-23T02:14:17.453Z,97953.88
2023-12-23T02:16:46.056Z,97959.50
2023-12-23T02:19:14.827Z,97965.66
2023-12-23T02:21:43.245Z,97971.25
2023-12-23T02:24:11.480Z,97969.75
2023-12-23T02:26:40.865Z,97955.72
2023-12-23T02:29:08.977Z,97963.97
2023-12-23T02:31:37.656Z,97956.16
2023-12-23T02:34:06.437Z,97964.97
2023-12-23T02:36:38.648Z,97959.09
2023-12-23T02:39:07.552Z,97957.13
2023-12-23T02:41:35.931Z,97960.06
2023-12-23T02:44:04.739Z,97968.06
2023-12-23T02:46:33.006Z,97964.28
2023-12-23T02:49:01.713Z,97961.47
2023-12-23T02:51:29.847Z,97969.19
2023-12-23T02:53:57.951Z,97971.59
2023-12-23T02:56:25.519Z,97971.47
2023-12-23T02:58:55.264Z,97972.72
2023-12-23T03:01:23.811Z,97982.97
2023-12-23T03:03:51.950Z,97991.22
2023-12-23T03:06:20.657Z,97982.69
2023-12-23T03:08:49.325Z,97979.44
2023-12-23T03:11:17.548Z,97984.22
2023-12-23T03:13:45.758Z,97978.22
2023-12-23T03:16:18.403Z,97979.63
2023-12-23T03:18:47.318Z,97969.25
2023-12-23T03:21:15.874Z,97975.81
2023-12-23T03:23:44.177Z,97979.47
2023-12-23T03:26:12.527Z,97977.22
2023-12-23T03:28:40.751Z,97982.56
2023-12-23T03:31:09.005Z,97990.38
2023-12-23T03:33:37.251Z,97991.63
2023-12-23T03:36:05.687Z,97991.91
2023-12-23T03:38:33.663Z,97990.22
2023-12-23T03:41:01.807Z,97998.38
2023-12-23T03:43:30.082Z,98002.84
2023-12-23T03:45:58.740Z,98002.84
2023-12-23T03:48:26.777Z,97998.91
2023-12-23T03:50:54.896Z,98002.28
2023-12-23T03:53:22.578Z,97998.91
2023-12-23T03:55:50.941Z,97998.34
2023-12-23T03:58:19.109Z,97993.56
2023-12-23T04:00:47.363Z,97998.16
2023-12-23T04:03:15.453Z,98000.84
2023-12-23T04:05:43.621Z,97994.81
2023-12-23T04:08:12.725Z,97999.41
2023-12-23T04:10:40.755Z,97991.03
2023-12-23T04:13:09.767Z,97990.34
2023-12-23T04:15:38.014Z,97994.94
2023-12-23T04:18:06.765Z,97997.75
2023-12-23T04:20:34.942Z,98002.34
2023-12-23T04:23:03.104Z,98004.03
2023-12-23T04:25:31.390Z,98003.72
2023-12-23T04:27:59.553Z,98006.53
2023-12-23T04:30:27.680Z,98005.38
2023-12-23T04:32:56.694Z,98014.19
2023-12-23T04:35:25.080Z,98017.13
2023-12-23T04:37:53.231Z,98014.03
2023-12-23T04:40:21.632Z,98013.34
2023-12-23T04:42:49.916Z,98021.56
2023-12-23T04:45:18.142Z,98023.78
2023-12-23T04:47:46.236Z,98016.72
2023-12-23T04:50:14.391Z,98021.94
2023-12-23T04:52:42.570Z,98016.16
2023-12-23T04:55:11.219Z,98027.19
2023-12-23T04:57:39.762Z,98032.06
2023-12-23T05:00:08.546Z,98023.38
2023-12-23T05:02:39.808Z,98019.16
2023-12-23T05:05:11.544Z,98023.50
2023-12-23T05:07:39.643Z,98009.63
2023-12-23T05:10:08.157Z,98007.72
2023-12-23T05:12:39.334Z,98018.59
2023-12-23T05:15:07.907Z,98014.50
2023-12-23T05:17:36.232Z,98018.78
2023-12-23T05:20:04.692Z,98014.59
2023-12-23T05:22:33.058Z,98014.97
2023-12-23T05:25:01.182Z,98010.91
2023-12-23T05:27:29.327Z,98011.63
2023-12-23T05:29:59.055Z,98030.19
2023-12-23T05:32:29.410Z,98035.78
2023-12-23T05:34:59.821Z,98040.81
2023-12-23T05:37:27.908Z,98036.22
2023-12-23T05:39:55.897Z,98040.03
2023-12-23T05:42:25.687Z,98043.28
2023-12-23T05:44:53.734Z,98043.13
2023-12-23T05:47:22.100Z,98041.34
2023-12-23T05:49:50.514Z,98045.78
2023-12-23T05:52:18.580Z,98044.13
2023-12-23T05:54:46.722Z,98039.41
2023-12-23T05:57:15.276Z,98031.19
2023-12-23T05:59:43.560Z,98040.81
2023-12-23T06:02:11.651Z,98034.53
2023-12-23T06:04:40.164Z,98032.59
2023-12-23T06:07:08.134Z,98035.84
2023-12-23T06:09:36.217Z,98039.19
2023-12-23T06:12:04.500Z,98034.47
2023-12-23T06:14:32.518Z,98036.84
2023-12-23T06:17:00.633Z,98044.69
2023-12-23T06:19:29.095Z,98038.97
2023-12-23T06:21:57.248Z,98034.09
2023-12-23T06:24:24.980Z,98039.56
2023-12-23T06:26:53.057Z,98039.69
2023-12-23T06:29:21.379Z,98040.97
2023-12-23T06:31:49.300Z,98042.13
2023-12-23T06:34:17.241Z,98052.81
2023-12-23T06:36:45.346Z,98054.91
2023-12-23T06:39:12.994Z,98057.06
2023-12-23T06:41:42.520Z,98048.66
2023-12-23T06:44:11.274Z,98058.34
2023-12-23T06:46:39.833Z,98054.19
2023-12-23T06:49:08.236Z,98054.50
2023-12-23T06:51:39.457Z,98052.25
2023-12-23T06:54:07.494Z,98056.59
2023-12-23T06:56:35.782Z,98057.47
2023-12-23T06:59:04.299Z,98058.63
2023-12-23T07:01:39.403Z,98056.50
2023-12-23T07:04:10.224Z,98055.13
2023-12-23T07:06:38.892Z,98051.91
2023-12-23T07:09:08.739Z,98053.28
2023-12-23T07:11:37.844Z,98056.94
2023-12-23T07:14:05.890Z,98066.34
2023-12-23T07:16:33.732Z,98069.28
2023-12-23T07:19:01.700Z,98062.28
2023-12-23T07:21:29.935Z,98074.19
2023-12-23T07:23:58.183Z,98073.63
2023-12-23T07:26:26.509Z,98080.06
2023-12-23T07:28:57.402Z,98076.56
2023-12-23T07:31:25.511Z,98086.09
2023-12-23T07:33:53.843Z,98084.41
2023-12-23T07:36:22.272Z,98090.72
2023-12-23T07:38:50.222Z,98084.97
2023-12-23T07:41:18.143Z,98085.69
2023-12-23T07:43:46.215Z,98082.59
2023-12-23T07:46:14.563Z,98077.41
2023-12-23T07:48:42.894Z,98080.72
2023-12-23T07:51:11.032Z,98094.63
2023-12-23T07:53:39.285Z,98094.31
2023-12-23T07:56:11.209Z,98092.47
2023-12-23T07:58:38.893Z,98086.31
2023-12-23T08:01:14.469Z,98091.06
2023-12-23T08:03:44.726Z,98089.94
2023-12-23T08:06:12.912Z,98095.41
2023-12-23T08:08:41.146Z,98100.03
2023-12-23T08:11:09.244Z,98100.47
2023-12-23T08:13:39.371Z,98096.13
2023-12-23T08:16:07.774Z,98099.50
2023-12-23T08:18:36.533Z,98094.28
2023-12-23T08:21:05.288Z,98089.66
2023-12-23T08:23:33.446Z,98092.47
2023-12-23T08:26:01.500Z,98091.88
2023-12-23T08:28:29.317Z,98076.59
2023-12-23T08:30:57.521Z,98077.97
2023-12-23T08:33:26.243Z,98078.81
2023-12-23T08:36:01.244Z,98075.44
2023-12-23T08:38:29.570Z,98068.81
2023-12-23T08:41:00.333Z,98074.16
2023-12-23T08:43:30.027Z,98076.09
2023-12-23T08:45:57.940Z,98086.59
2023-12-23T08:48:26.558Z,98081.25
2023-12-23T08:50:57.793Z,98074.66
2023-12-23T08:53:28.582Z,98068.03
2023-12-23T08:56:00.649Z,98068.19
2023-12-23T08:58:32.177Z,98075.75
2023-12-23T09:01:00.160Z,98073.28
2023-12-23T09:03:29.519Z,98083.25
2023-12-23T09:06:00.693Z,98068.28
2023-12-23T09:08:30.071Z,98076.22
2023-12-23T09:10:58.139Z,98074.56
2023-12-23T09:13:32.604Z,98067.50
2023-12-23T09:16:03.681Z,98076.78
2023-12-23T09:18:33.026Z,98068.41
2023-12-23T09:21:01.205Z,98077.06
2023-12-23T09:23:29.195Z,98080.41
2023-12-23T09:26:01.077Z,98071.66
2023-12-23T09:28:29.542Z,98067.22
2023-12-23T09:30:57.672Z,98076.06
2023-12-23T09:33:26.716Z,98080.25
2023-12-23T09:35:55.403Z,98089.00
2023-12-23T09:38:23.807Z,98081.44
2023-12-23T09:40:51.956Z,98090.84
2023-12-23T09:43:23.056Z,98086.59
2023-12-23T09:45:52.098Z,98082.78
2023-12-23T09:48:20.480Z,98079.28
2023-12-23T09:50:50.224Z,98072.78
2023-12-23T09:53:20.991Z,98073.59
2023-12-23T09:55:49.454Z,98068.72
2023-12-23T09:58:20.306Z,98067.06
2023-12-23T10:00:50.937Z,98068.13
2023-12-23T10:03:23.315Z,98077.75
2023-12-23T10:05:56.355Z,98077.00
2023-12-23T10:08:27.423Z,98090.34
2023-12-23T10:10:55.739Z,98081.25
2023-12-23T10:13:24.520Z,98084.22
2023-12-23T10:15:52.883Z,98087.16
2023-12-23T10:18:20.886Z,98083.94
2023-12-23T10:20:49.311Z,98079.25
2023-12-23T10:23:17.747Z,98082.00
2023-12-23T10:25:46.674Z,98076.88
2023-12-23T10:28:16.979Z,98078.25
2023-12-23T10:30:49.784Z,98080.34
2023-12-23T10:33:19.267Z,98072.63
2023-12-23T10:35:49.425Z,98070.97
2023-12-23T10:38:19.484Z,98074.22
2023-12-23T10:41:24.168Z,98075.44
2023-12-23T10:43:53.861Z,98075.38
2023-12-23T10:46:22.402Z,98081.03
2023-12-23T10:48:51.906Z,98079.72
2023-12-23T10:51:21.029Z,98074.84
2023-12-23T10:53:48.987Z,98075.53
2023-12-23T10:56:17.718Z,98085.38
2023-12-23T10:58:46.625Z,98077.81
2023-12-23T11:01:16.942Z,98076.53
2023-12-23T11:03:45.547Z,98073.88
2023-12-23T11:06:14.734Z,98066.94
2023-12-23T11:08:43.429Z,98066.47
2023-12-23T11:11:12.549Z,98066.81
2023-12-23T11:13:40.692Z,98071.50
2023-12-23T11:16:12.056Z,98065.84
2023-12-23T11:18:44.094Z,98072.44
2023-12-23T11:21:17.870Z,98069.09
2023-12-23T11:23:47.138Z,98071.09
2023-12-23T11:26:39.331Z,98076.13
2023-12-23T11:29:08.631Z,98081.47
2023-12-23T11:31:38.909Z,98084.56
2023-12-23T11:34:17.942Z,98080.34
2023-12-23T11:36:47.747Z,98093.44
2023-12-23T11:39:17.802Z,98087.84
2023-12-23T11:41:51.917Z,98087.53
2023-12-23T11:44:20.097Z,98089.50
2023-12-23T11:46:48.318Z,98092.22
2023-12-23T11:49:17.544Z,98088.84
2023-12-23T11:51:46.284Z,98094.47
2023-12-23T11:54:17.181Z,98099.38
2023-12-23T11:56:45.644Z,98102.31
2023-12-23T11:59:14.250Z,98101.00
2023-12-23T12:01:42.586Z,98104.00
2023-12-23T12:04:10.879Z,98110.91
2023-12-23T12:06:38.772Z,98109.81
2023-12-23T12:09:08.070Z,98095.81
2023-12-23T12:11:36.474Z,98095.81
2023-12-23T12:14:04.990Z,98095.16
2023-12-23T12:16:33.418Z,98089.66
2023-12-23T12:19:01.751Z,98096.38
2023-12-23T12:21:29.867Z,98102.53
2023-12-23T12:23:59.763Z,98099.72
2023-12-23T12:26:28.071Z,98107.84
2023-12-23T12:28:56.265Z,98103.22
2023-12-23T12:31:24.753Z,98103.72
2023-12-23T12:33:54.226Z,98102.91
2023-12-23T12:36:22.885Z,98108.94
2023-12-23T12:38:52.083Z,98104.06
2023-12-23T12:41:20.320Z,98117.22
2023-12-23T12:43:48.645Z,98118.34
2023-12-23T12:46:17.478Z,98103.78
2023-12-23T12:48:47.775Z,98103.50
2023-12-23T12:51:18.745Z,98106.16
2023-12-23T12:53:48.583Z,98094.38
2023-12-23T12:56:23.013Z,98091.28
2023-12-23T12:58:52.875Z,98087.78
2023-12-23T13:01:22.950Z,98095.94
2023-12-23T13:03:51.622Z,98096.66
2023-12-23T13:06:20.434Z,98086.03
2023-12-23T13:08:51.554Z,98088.81
2023-12-23T13:11:25.508Z,98091.81
2023-12-23T13:13:53.470Z,98092.94
2023-12-23T13:16:21.726Z,98091.41
2023-12-23T13:18:57.032Z,98099.44
2023-12-23T13:21:31.759Z,98099.56
2023-12-23T13:24:00.008Z,98099.31
2023-12-23T13:26:28.536Z,98100.69
2023-12-23T13:28:57.543Z,98101.81
2023-12-23T13:31:25.670Z,98103.75
2023-12-23T13:33:53.877Z,98090.44
2023-12-23T13:36:23.289Z,98087.09
2023-12-23T13:38:51.517Z,98098.03
2023-12-23T13:41:29.734Z,98100.69
2023-12-23T13:43:58.178Z,98092.66
2023-12-23T13:46:26.648Z,98093.91
2023-12-23T13:48:56.046Z,98087.06
2023-12-23T13:51:25.729Z,98085.25
2023-12-23T13:53:53.709Z,98084.41
2023-12-23T13:56:22.125Z,98080.75
2023-12-23T13:58:50.514Z,98083.25
2023-12-23T14:01:19.075Z,98090.16
2023-12-23T14:03:47.111Z,98084.69
2023-12-23T14:06:15.424Z,98089.88
2023-12-23T14:08:44.995Z,98093.13
2023-12-23T14:11:13.783Z,98087.78
2023-12-23T14:13:41.916Z,98085.97
2023-12-23T14:16:10.381Z,98085.81
2023-12-23T14:18:38.357Z,98096.47
2023-12-23T14:21:06.160Z,98098.97
2023-12-23T14:23:34.639Z,98111.03
2023-12-23T14:26:05.411Z,98113.28
2023-12-23T14:28:36.663Z,98109.34
2023-12-23T14:31:05.297Z,98111.91
2023-12-23T14:33:33.657Z,98112.16
2023-12-23T14:36:01.796Z,98105.84
2023-12-23T14:38:30.177Z,98106.69
2023-12-23T14:40:58.212Z,98098.97
2023-12-23T14:43:26.940Z,98110.56
2023-12-23T14:45:54.637Z,98103.41
2023-12-23T14:48:22.641Z,98113.38
2023-12-23T14:50:50.739Z,98105.56
2023-12-23T14:53:18.658Z,98110.19
2023-12-23T14:55:51.082Z,98116.78
2023-12-23T14:58:19.302Z,98112.84
2023-12-23T15:00:47.537Z,98118.91
2023-12-23T15:03:16.829Z,98123.09
2023-12-23T15:05:45.138Z,98118.75
2023-12-23T15:08:13.420Z,98117.34
2023-12-23T15:10:41.437Z,98119.16
2023-12-23T15:13:09.735Z,98119.16
2023-12-23T15:15:38.552Z,98109.66
2023-12-23T15:18:09.308Z,98122.53
2023-12-23T15:20:40.601Z,98117.06
2023-12-23T15:23:08.766Z,98122.41
2023-12-23T15:25:37.201Z,98119.75
2023-12-23T15:28:05.800Z,98118.19
2023-12-23T15:30:36.360Z,98113.44
2023-12-23T15:33:04.772Z,98111.59
2023-12-23T15:35:32.657Z,98113.69
2023-12-23T15:38:02.244Z,98114.63
2023-12-23T15:40:31.216Z,98119.69
2023-12-23T15:42:59.798Z,98115.63
2023-12-23T15:45:28.274Z,98125.53
2023-12-23T15:47:56.666Z,98118.53
2023-12-23T15:50:24.532Z,98118.34
2023-12-23T15:52:52.977Z,98124.91
2023-12-23T15:55:46.396Z,98119.44
2023-12-23T15:58:15.441Z,98127.09
2023-12-23T16:00:43.659Z,98128.88
2023-12-23T16:03:12.392Z,98133.88
2023-12-23T16:05:40.884Z,98122.22
2023-12-23T16:08:11.084Z,98133.25
2023-12-23T16:10:40.248Z,98134.75
2023-12-23T16:13:09.400Z,98138.78
2023-12-23T16:15:37.992Z,98134.69
2023-12-23T16:18:06.512Z,98141.38
2023-12-23T16:20:34.716Z,98134.78
2023-12-23T16:23:03.469Z,98141.19
2023-12-23T16:25:31.870Z,98135.88
2023-12-23T16:27:59.774Z,98144.09
2023-12-23T16:30:29.641Z,98134.69
2023-12-23T16:32:58.021Z,98140.72
2023-12-23T16:35:26.194Z,98135.66
2023-12-23T16:37:54.590Z,98129.66
2023-12-23T16:40:22.537Z,98134.84
2023-12-23T16:42:51.091Z,98133.00
2023-12-23T16:45:20.367Z,98139.31
2023-12-23T16:47:48.657Z,98128.94
2023-12-23T16:50:17.344Z,98131.72
2023-12-23T16:52:45.514Z,98132.69
2023-12-23T16:55:14.926Z,98131.72
2023-12-23T16:57:43.093Z,98136.31
2023-12-23T17:00:11.594Z,98143.56
2023-12-23T17:02:40.160Z,98142.09
2023-12-23T17:05:09.271Z,98147.66
2023-12-23T17:07:37.444Z,98137.44
2023-12-23T17:10:07.083Z,98143.56
2023-12-23T17:12:35.682Z,98145.25
2023-12-23T17:15:04.335Z,98149.59
2023-12-23T17:17:33.544Z,98154.50
2023-12-23T17:20:01.881Z,98154.06
2023-12-23T17:22:30.567Z,98150.50
2023-12-23T17:24:59.017Z,98154.44
2023-12-23T17:27:26.682Z,98159.06
2023-12-23T17:29:55.394Z,98155.44
2023-12-23T17:32:29.086Z,98148.69
2023-12-23T17:34:57.427Z,98161.13
2023-12-23T17:37:25.622Z,98161.13
2023-12-23T17:39:55.786Z,98165.22
2023-12-23T17:42:24.585Z,98161.44
2023-12-23T17:44:55.520Z,98161.56
2023-12-23T17:47:25.356Z,98167.41
2023-12-23T17:49:53.571Z,98170.06
2023-12-23T17:52:21.606Z,98172.59
2023-12-23T17:54:49.698Z,98164.47
2023-12-23T17:57:18.131Z,98169.19
2023-12-23T17:59:46.361Z,98175.38
2023-12-23T18:02:16.617Z,98167.41
2023-12-23T18:04:47.784Z,98168.97
2023-12-23T18:07:16.399Z,98170.91
2023-12-23T18:09:44.597Z,98171.84
2023-12-23T18:12:12.848Z,98177.16
2023-12-23T18:14:41.049Z,98181.63
2023-12-23T18:17:08.988Z,98180.69
2023-12-23T18:19:38.745Z,98177.06
2023-12-23T18:22:07.412Z,98180.69
2023-12-23T18:24:35.761Z,98186.13
2023-12-23T18:27:04.283Z,98188.66
2023-12-23T18:29:32.920Z,98186.94
2023-12-23T18:32:01.084Z,98186.94
2023-12-23T18:34:29.503Z,98200.13
2023-12-23T18:36:57.580Z,98184.66
2023-12-23T18:39:25.646Z,98195.97
2023-12-23T18:41:53.781Z,98201.03
2023-12-23T18:44:23.088Z,98202.84
2023-12-23T18:46:51.219Z,98200.59
2023-12-23T18:49:19.453Z,98207.31
2023-12-23T18:51:47.605Z,98210.81
2023-12-23T18:54:17.129Z,98220.84
2023-12-23T18:56:45.226Z,98219.31
2023-12-23T18:59:13.736Z,98224.72
2023-12-23T19:01:42.147Z,98228.22
2023-12-23T19:04:10.505Z,98229.06
2023-12-23T19:06:38.998Z,98233.44
2023-12-23T19:09:07.196Z,98233.44
2023-12-23T19:11:35.543Z,98239.69
2023-12-23T19:14:03.953Z,98229.44
2023-12-23T19:16:33.679Z,98235.97
2023-12-23T19:19:02.950Z,98237.78
2023-12-23T19:21:31.279Z,98237.56
2023-12-23T19:23:59.814Z,98235.88
2023-12-23T19:26:28.979Z,98237.78
2023-12-23T19:29:01.865Z,98233.25
2023-12-23T19:31:33.178Z,98236.13
2023-12-23T19:34:01.999Z,98243.03
2023-12-23T19:36:30.378Z,98240.50
2023-12-23T19:39:00.797Z,98242.88
2023-12-23T19:41:28.884Z,98240.50
2023-12-23T19:43:57.141Z,98235.53
2023-12-23T19:46:25.300Z,98243.25
2023-12-23T19:48:53.512Z,98248.31
2023-12-23T19:51:23.219Z,98258.56
2023-12-23T19:53:52.297Z,98255.91
2023-12-23T19:56:20.545Z,98266.78
2023-12-23T19:58:48.806Z,98262.69
2023-12-23T20:01:16.936Z,98257.50
2023-12-23T20:03:46.565Z,98261.75
2023-12-23T20:06:14.972Z,98272.38
2023-12-23T20:08:43.237Z,98267.66
2023-12-23T20:11:11.502Z,98277.31
2023-12-23T20:13:39.893Z,98277.06
2023-12-23T20:16:08.330Z,98277.19
2023-12-23T20:18:37.774Z,98277.06
2023-12-23T20:21:06.228Z,98286.84
2023-12-23T20:23:34.150Z,98289.75
2023-12-23T20:26:02.480Z,98282.00
2023-12-23T20:28:30.765Z,98290.94
2023-12-23T20:30:59.186Z,98297.09
2023-12-23T20:33:27.616Z,98302.56
2023-12-23T20:35:55.857Z,98304.38
2023-12-23T20:38:23.970Z,98301.94
2023-12-23T20:40:52.051Z,98298.91
2023-12-23T20:43:20.978Z,98297.94
2023-12-23T20:45:49.734Z,98298.81
2023-12-23T20:48:18.806Z,98296.41
2023-12-23T20:50:50.156Z,98301.34
2023-12-23T20:53:18.670Z,98292.53
2023-12-23T20:55:50.040Z,98302.66
2023-12-23T20:58:18.412Z,98305.22
2023-12-23T21:00:46.730Z,98304.09
2023-12-23T21:03:14.826Z,98310.38
2023-12-23T21:05:44.360Z,98299.41
2023-12-23T21:08:12.825Z,98310.63
2023-12-23T21:10:41.902Z,98303.38
2023-12-23T21:13:09.895Z,98302.44
2023-12-23T21:15:38.667Z,98306.63
2023-12-23T21:18:06.832Z,98306.28
2023-12-23T21:20:35.333Z,98307.00
2023-12-23T21:23:03.815Z,98309.06
2023-12-23T21:25:32.102Z,98312.19
2023-12-23T21:28:00.142Z,98309.53
2023-12-23T21:30:28.613Z,98312.09
2023-12-23T21:32:57.234Z,98309.66
2023-12-23T21:35:25.998Z,98322.81
2023-12-23T21:37:53.968Z,98316.06
2023-12-23T21:40:22.401Z,98327.63
2023-12-23T21:43:16.311Z,98335.38
2023-12-23T21:45:45.247Z,98344.53
2023-12-23T21:48:13.896Z,98334.03
2023-12-23T21:50:42.159Z,98331.50
2023-12-23T21:53:13.152Z,98333.09
2023-12-23T21:55:44.348Z,98336.91
2023-12-23T21:58:13.197Z,98337.75
2023-12-23T22:00:44.617Z,98340.41
2023-12-23T22:03:12.746Z,98347.06
2023-12-23T22:05:40.766Z,98340.56
2023-12-23T22:08:09.144Z,98344.41
2023-12-23T22:10:40.132Z,98339.81
2023-12-23T22:13:07.908Z,98338.88
2023-12-23T22:15:36.008Z,98354.06
2023-12-23T22:18:04.372Z,98348.38
2023-12-23T22:20:33.546Z,98357.31
2023-12-23T22:23:01.771Z,98357.09
2023-12-23T22:25:30.180Z,98348.88
2023-12-23T22:27:58.764Z,98356.47
2023-12-23T22:30:27.048Z,98354.56
2023-12-23T22:32:57.943Z,98351.41
2023-12-23T22:35:26.706Z,98357.19
2023-12-23T22:37:54.700Z,98353.22
2023-12-23T22:40:22.649Z,98362.97
2023-12-23T22:42:51.419Z,98370.94
2023-12-23T22:45:21.748Z,98377.56
2023-12-23T22:48:14.838Z,98373.16
2023-12-23T22:50:43.433Z,98367.44
2023-12-23T22:53:13.464Z,98376.50
2023-12-23T22:55:41.926Z,98388.47
2023-12-23T22:58:10.730Z,98389.56
2023-12-23T23:00:39.119Z,98398.00
2023-12-23T23:03:07.213Z,98394.25
2023-12-23T23:05:35.969Z,98403.31
2023-12-23T23:08:05.844Z,98396.66
2023-12-23T23:10:34.964Z,98397.88
2023-12-23T23:13:06.282Z,98404.03
2023-12-23T23:15:34.390Z,98404.16
2023-12-23T23:18:02.215Z,98391.84
2023-12-23T23:20:31.387Z,98401.25
2023-12-23T23:23:00.751Z,98400.78
2023-12-23T23:25:29.776Z,98417.78
2023-12-23T23:27:58.076Z,98413.31
2023-12-23T23:30:26.377Z,98409.59
2023-12-23T23:32:56.404Z,98422.88
2023-12-23T23:35:25.867Z,98422.03
2023-12-23T23:37:53.789Z,98418.84
2023-12-23T23:40:21.777Z,98419.13
2023-12-23T23:42:50.001Z,98428.88
2023-12-23T23:45:18.181Z,98432.75
2023-12-23T23:47:47.172Z,98436.47
2023-12-23T23:50:16.410Z,98437.31
2023-12-23T23:52:45.496Z,98443.72
2023-12-23T23:55:14.161Z,98446.25
2023-12-23T23:57:45.267Z,98459.38
